sensor_id;sensor_type;location;lat;lon;timestamp;temperature;humidity
10437;DHT22;5265;50.006;9.202;2023-08-17T00:01:02;18.40;99.90
10437;DHT22;5265;50.006;9.202;2023-08-17T00:03:30;18.40;99.90
10437;DHT22;5265;50.006;9.202;2023-08-17T00:05:57;18.40;99.90
10437;DHT22;5265;50.006;9.202;2023-08-17T00:08:24;18.40;99.90
10437;DHT22;5265;50.006;9.202;2023-08-17T00:10:52;18.40;99.90
10437;DHT22;5265;50.006;9.202;2023-08-17T00:13:20;18.30;99.90
10437;DHT22;5265;50.006;9.202;2023-08-17T00:15:47;18.30;99.90
10437;DHT22;5265;50.006;9.202;2023-08-17T00:18:14;18.20;99.90
10437;DHT22;5265;50.006;9.202;2023-08-17T00:20:41;18.30;99.90
10437;DHT22;5265;50.006;9.202;2023-08-17T00:23:08;18.30;99.90
10437;DHT22;5265;50.006;9.202;2023-08-17T00:25:35;18.30;99.90
10437;DHT22;5265;50.006;9.202;2023-08-17T00:28:04;18.30;99.90
10437;DHT22;5265;50.006;9.202;2023-08-17T00:30:31;18.20;99.90
10437;DHT22;5265;50.006;9.202;2023-08-17T00:33:02;18.10;99.90
10437;DHT22;5265;50.006;9.202;2023-08-17T00:35:29;18.20;99.90
10437;DHT22;5265;50.006;9.202;2023-08-17T00:37:56;18.20;99.90
10437;DHT22;5265;50.006;9.202;2023-08-17T00:40:23;18.20;99.90
10437;DHT22;5265;50.006;9.202;2023-08-17T00:42:50;18.20;99.90
10437;DHT22;5265;50.006;9.202;2023-08-17T00:45:19;18.20;99.90
10437;DHT22;5265;50.006;9.202;2023-08-17T00:47:46;18.20;99.90
10437;DHT22;5265;50.006;9.202;2023-08-17T00:50:13;18.20;99.90
10437;DHT22;5265;50.006;9.202;2023-08-17T00:52:41;18.10;99.90
10437;DHT22;5265;50.006;9.202;2023-08-17T00:55:08;18.10;99.90
10437;DHT22;5265;50.006;9.202;2023-08-17T00:57:36;18.00;99.90
10437;DHT22;5265;50.006;9.202;2023-08-17T01:00:05;18.00;99.90
10437;DHT22;5265;50.006;9.202;2023-08-17T01:02:35;18.00;99.90
10437;DHT22;5265;50.006;9.202;2023-08-17T01:05:02;17.90;99.90
10437;DHT22;5265;50.006;9.202;2023-08-17T01:07:31;17.90;99.90
10437;DHT22;5265;50.006;9.202;2023-08-17T01:09:59;17.90;99.90
10437;DHT22;5265;50.006;9.202;2023-08-17T01:12:28;17.90;99.90
10437;DHT22;5265;50.006;9.202;2023-08-17T01:15:00;17.80;99.90
10437;DHT22;5265;50.006;9.202;2023-08-17T01:17:32;17.80;99.90
10437;DHT22;5265;50.006;9.202;2023-08-17T01:20:01;17.80;99.90
10437;DHT22;5265;50.006;9.202;2023-08-17T01:22:32;17.80;99.90
10437;DHT22;5265;50.006;9.202;2023-08-17T01:25:03;17.90;99.90
10437;DHT22;5265;50.006;9.202;2023-08-17T01:27:43;17.90;99.90
10437;DHT22;5265;50.006;9.202;2023-08-17T01:30:11;17.80;99.90
10437;DHT22;5265;50.006;9.202;2023-08-17T01:32:39;17.80;99.90
10437;DHT22;5265;50.006;9.202;2023-08-17T01:35:09;17.70;99.90
10437;DHT22;5265;50.006;9.202;2023-08-17T01:37:38;17.70;99.90
10437;DHT22;5265;50.006;9.202;2023-08-17T01:40:07;17.70;99.90
10437;DHT22;5265;50.006;9.202;2023-08-17T01:42:36;17.70;99.90
10437;DHT22;5265;50.006;9.202;2023-08-17T01:45:04;17.80;99.90
10437;DHT22;5265;50.006;9.202;2023-08-17T01:47:30;17.90;99.90
10437;DHT22;5265;50.006;9.202;2023-08-17T01:49:57;17.90;99.90
10437;DHT22;5265;50.006;9.202;2023-08-17T01:52:25;17.80;99.90
10437;DHT22;5265;50.006;9.202;2023-08-17T01:54:53;17.70;99.90
10437;DHT22;5265;50.006;9.202;2023-08-17T01:57:21;17.70;99.90
10437;DHT22;5265;50.006;9.202;2023-08-17T01:59:48;17.60;99.90
10437;DHT22;5265;50.006;9.202;2023-08-17T02:02:15;17.60;99.90
10437;DHT22;5265;50.006;9.202;2023-08-17T02:04:43;17.60;99.90
10437;DHT22;5265;50.006;9.202;2023-08-17T02:07:10;17.70;99.90
10437;DHT22;5265;50.006;9.202;2023-08-17T02:09:37;18.00;99.90
10437;DHT22;5265;50.006;9.202;2023-08-17T02:12:05;17.90;99.90
10437;DHT22;5265;50.006;9.202;2023-08-17T02:14:35;17.50;99.90
10437;DHT22;5265;50.006;9.202;2023-08-17T02:17:02;17.60;99.90
10437;DHT22;5265;50.006;9.202;2023-08-17T02:19:31;17.70;99.90
10437;DHT22;5265;50.006;9.202;2023-08-17T02:21:58;17.50;99.90
10437;DHT22;5265;50.006;9.202;2023-08-17T02:24:25;17.50;99.90
10437;DHT22;5265;50.006;9.202;2023-08-17T02:26:53;17.30;99.90
10437;DHT22;5265;50.006;9.202;2023-08-17T02:29:20;17.40;99.90
10437;DHT22;5265;50.006;9.202;2023-08-17T02:31:48;17.40;99.90
10437;DHT22;5265;50.006;9.202;2023-08-17T02:34:15;17.40;99.90
10437;DHT22;5265;50.006;9.202;2023-08-17T02:36:43;17.40;99.90
10437;DHT22;5265;50.006;9.202;2023-08-17T02:39:10;17.40;99.90
10437;DHT22;5265;50.006;9.202;2023-08-17T02:41:37;17.40;99.90
10437;DHT22;5265;50.006;9.202;2023-08-17T02:44:05;17.50;99.90
10437;DHT22;5265;50.006;9.202;2023-08-17T02:46:32;17.50;99.90
10437;DHT22;5265;50.006;9.202;2023-08-17T02:49:00;17.30;99.90
10437;DHT22;5265;50.006;9.202;2023-08-17T02:51:27;17.40;99.90
10437;DHT22;5265;50.006;9.202;2023-08-17T02:53:55;17.30;99.90
10437;DHT22;5265;50.006;9.202;2023-08-17T02:56:22;17.40;99.90
10437;DHT22;5265;50.006;9.202;2023-08-17T02:58:49;17.40;99.90
10437;DHT22;5265;50.006;9.202;2023-08-17T03:01:16;17.20;99.90
10437;DHT22;5265;50.006;9.202;2023-08-17T03:03:43;17.60;99.90
10437;DHT22;5265;50.006;9.202;2023-08-17T03:06:12;17.60;99.90
10437;DHT22;5265;50.006;9.202;2023-08-17T03:08:39;17.70;99.90
10437;DHT22;5265;50.006;9.202;2023-08-17T03:11:06;17.70;99.90
10437;DHT22;5265;50.006;9.202;2023-08-17T03:13:36;17.80;99.90
10437;DHT22;5265;50.006;9.202;2023-08-17T03:16:03;17.20;99.90
10437;DHT22;5265;50.006;9.202;2023-08-17T03:18:30;17.40;99.90
10437;DHT22;5265;50.006;9.202;2023-08-17T03:20:57;18.30;99.90
10437;DHT22;5265;50.006;9.202;2023-08-17T03:23:25;17.00;99.90
10437;DHT22;5265;50.006;9.202;2023-08-17T03:25:52;17.70;99.90
10437;DHT22;5265;50.006;9.202;2023-08-17T03:28:19;17.50;99.90
10437;DHT22;5265;50.006;9.202;2023-08-17T03:30:47;17.50;99.90
10437;DHT22;5265;50.006;9.202;2023-08-17T03:33:14;17.40;99.90
10437;DHT22;5265;50.006;9.202;2023-08-17T03:35:42;17.20;99.90
10437;DHT22;5265;50.006;9.202;2023-08-17T03:38:09;17.50;99.90
10437;DHT22;5265;50.006;9.202;2023-08-17T03:40:37;17.50;99.90
10437;DHT22;5265;50.006;9.202;2023-08-17T03:43:04;17.20;99.90
10437;DHT22;5265;50.006;9.202;2023-08-17T03:45:31;16.90;99.90
10437;DHT22;5265;50.006;9.202;2023-08-17T03:47:58;16.60;99.90
10437;DHT22;5265;50.006;9.202;2023-08-17T03:50:27;17.60;99.90
10437;DHT22;5265;50.006;9.202;2023-08-17T03:52:54;17.30;99.90
10437;DHT22;5265;50.006;9.202;2023-08-17T03:55:21;17.30;99.90
10437;DHT22;5265;50.006;9.202;2023-08-17T03:57:50;17.20;99.90
10437;DHT22;5265;50.006;9.202;2023-08-17T04:00:17;17.00;99.90
10437;DHT22;5265;50.006;9.202;2023-08-17T04:02:44;17.70;99.90
10437;DHT22;5265;50.006;9.202;2023-08-17T04:05:15;17.40;99.90
10437;DHT22;5265;50.006;9.202;2023-08-17T04:07:43;17.40;99.90
10437;DHT22;5265;50.006;9.202;2023-08-17T04:10:09;17.50;99.90
10437;DHT22;5265;50.006;9.202;2023-08-17T04:12:36;17.60;99.90
10437;DHT22;5265;50.006;9.202;2023-08-17T04:15:05;17.50;99.90
10437;DHT22;5265;50.006;9.202;2023-08-17T04:17:33;17.60;99.90
10437;DHT22;5265;50.006;9.202;2023-08-17T04:20:00;17.40;99.90
10437;DHT22;5265;50.006;9.202;2023-08-17T04:22:27;17.20;99.90
10437;DHT22;5265;50.006;9.202;2023-08-17T04:24:55;17.20;99.90
10437;DHT22;5265;50.006;9.202;2023-08-17T04:27:23;17.50;99.90
10437;DHT22;5265;50.006;9.202;2023-08-17T04:29:50;17.70;99.90
10437;DHT22;5265;50.006;9.202;2023-08-17T04:32:20;17.90;99.90
10437;DHT22;5265;50.006;9.202;2023-08-17T04:34:47;17.40;99.90
10437;DHT22;5265;50.006;9.202;2023-08-17T04:37:15;17.40;99.90
10437;DHT22;5265;50.006;9.202;2023-08-17T04:39:42;17.40;99.90
10437;DHT22;5265;50.006;9.202;2023-08-17T04:42:14;17.30;99.90
10437;DHT22;5265;50.006;9.202;2023-08-17T04:44:42;17.00;99.90
10437;DHT22;5265;50.006;9.202;2023-08-17T04:47:10;17.30;99.90
10437;DHT22;5265;50.006;9.202;2023-08-17T04:49:39;17.40;99.90
10437;DHT22;5265;50.006;9.202;2023-08-17T04:52:06;17.70;99.90
10437;DHT22;5265;50.006;9.202;2023-08-17T04:54:33;18.10;99.90
10437;DHT22;5265;50.006;9.202;2023-08-17T04:57:01;16.90;99.90
10437;DHT22;5265;50.006;9.202;2023-08-17T04:59:30;17.40;99.90
10437;DHT22;5265;50.006;9.202;2023-08-17T05:01:57;17.70;99.90
10437;DHT22;5265;50.006;9.202;2023-08-17T05:04:24;17.70;99.90
10437;DHT22;5265;50.006;9.202;2023-08-17T05:06:54;17.70;99.90
10437;DHT22;5265;50.006;9.202;2023-08-17T05:09:22;17.40;99.90
10437;DHT22;5265;50.006;9.202;2023-08-17T05:11:49;17.50;99.90
10437;DHT22;5265;50.006;9.202;2023-08-17T05:21:45;17.30;99.90
10437;DHT22;5265;50.006;9.202;2023-08-17T05:24:16;17.60;99.90
10437;DHT22;5265;50.006;9.202;2023-08-17T05:31:40;17.30;99.90
10437;DHT22;5265;50.006;9.202;2023-08-17T05:34:09;17.60;99.90
10437;DHT22;5265;50.006;9.202;2023-08-17T05:36:37;17.70;99.90
10437;DHT22;5265;50.006;9.202;2023-08-17T05:39:05;17.70;99.90
10437;DHT22;5265;50.006;9.202;2023-08-17T05:41:34;17.50;99.90
10437;DHT22;5265;50.006;9.202;2023-08-17T05:44:04;17.30;99.90
10437;DHT22;5265;50.006;9.202;2023-08-17T05:46:34;17.30;99.90
10437;DHT22;5265;50.006;9.202;2023-08-17T05:49:01;17.50;99.90
10437;DHT22;5265;50.006;9.202;2023-08-17T05:51:28;17.70;99.90
10437;DHT22;5265;50.006;9.202;2023-08-17T05:53:56;17.70;99.90
10437;DHT22;5265;50.006;9.202;2023-08-17T05:56:23;17.70;99.90
10437;DHT22;5265;50.006;9.202;2023-08-17T05:58:51;17.80;99.90
10437;DHT22;5265;50.006;9.202;2023-08-17T06:01:18;17.80;99.90
10437;DHT22;5265;50.006;9.202;2023-08-17T06:03:46;17.90;99.90
10437;DHT22;5265;50.006;9.202;2023-08-17T06:06:13;18.30;99.90
10437;DHT22;5265;50.006;9.202;2023-08-17T06:08:40;18.00;99.90
10437;DHT22;5265;50.006;9.202;2023-08-17T06:11:07;17.20;99.90
10437;DHT22;5265;50.006;9.202;2023-08-17T06:13:34;18.00;99.90
10437;DHT22;5265;50.006;9.202;2023-08-17T06:20:59;18.10;99.90
10437;DHT22;5265;50.006;9.202;2023-08-17T06:23:27;18.40;99.90
10437;DHT22;5265;50.006;9.202;2023-08-17T06:28:24;18.20;99.90
10437;DHT22;5265;50.006;9.202;2023-08-17T06:30:52;18.30;99.90
10437;DHT22;5265;50.006;9.202;2023-08-17T06:33:19;18.10;99.90
10437;DHT22;5265;50.006;9.202;2023-08-17T06:35:46;18.00;99.90
10437;DHT22;5265;50.006;9.202;2023-08-17T06:38:17;18.10;99.90
10437;DHT22;5265;50.006;9.202;2023-08-17T06:40:44;18.20;99.90
10437;DHT22;5265;50.006;9.202;2023-08-17T06:43:14;18.40;99.90
10437;DHT22;5265;50.006;9.202;2023-08-17T06:50:38;18.50;99.90
10437;DHT22;5265;50.006;9.202;2023-08-17T06:53:05;18.80;99.90
10437;DHT22;5265;50.006;9.202;2023-08-17T06:55:33;18.30;99.90
10437;DHT22;5265;50.006;9.202;2023-08-17T06:58:01;17.80;99.90
10437;DHT22;5265;50.006;9.202;2023-08-17T07:00:28;17.90;99.90
10437;DHT22;5265;50.006;9.202;2023-08-17T07:02:55;18.80;99.90
10437;DHT22;5265;50.006;9.202;2023-08-17T07:05:22;19.40;99.90
10437;DHT22;5265;50.006;9.202;2023-08-17T07:07:49;18.80;99.90
10437;DHT22;5265;50.006;9.202;2023-08-17T07:10:18;19.30;99.90
10437;DHT22;5265;50.006;9.202;2023-08-17T07:12:46;19.20;99.90
10437;DHT22;5265;50.006;9.202;2023-08-17T07:15:13;19.80;99.90
10437;DHT22;5265;50.006;9.202;2023-08-17T07:17:41;19.40;99.90
10437;DHT22;5265;50.006;9.202;2023-08-17T07:20:08;19.00;99.90
10437;DHT22;5265;50.006;9.202;2023-08-17T07:22:37;19.60;99.90
10437;DHT22;5265;50.006;9.202;2023-08-17T07:25:04;19.60;99.90
10437;DHT22;5265;50.006;9.202;2023-08-17T07:30:01;19.70;99.90
10437;DHT22;5265;50.006;9.202;2023-08-17T07:32:28;19.70;99.90
10437;DHT22;5265;50.006;9.202;2023-08-17T07:34:55;19.70;99.90
10437;DHT22;5265;50.006;9.202;2023-08-17T07:37:22;19.80;99.90
10437;DHT22;5265;50.006;9.202;2023-08-17T07:39:49;19.90;99.90
10437;DHT22;5265;50.006;9.202;2023-08-17T07:42:16;19.90;99.90
10437;DHT22;5265;50.006;9.202;2023-08-17T07:44:43;19.90;99.90
10437;DHT22;5265;50.006;9.202;2023-08-17T07:47:12;20.00;99.90
10437;DHT22;5265;50.006;9.202;2023-08-17T07:49:39;20.10;99.90
10437;DHT22;5265;50.006;9.202;2023-08-17T07:52:07;20.20;99.90
10437;DHT22;5265;50.006;9.202;2023-08-17T07:54:34;20.20;99.90
10437;DHT22;5265;50.006;9.202;2023-08-17T07:57:01;20.20;99.90
10437;DHT22;5265;50.006;9.202;2023-08-17T07:59:28;20.20;99.90
10437;DHT22;5265;50.006;9.202;2023-08-17T08:01:55;20.30;99.90
10437;DHT22;5265;50.006;9.202;2023-08-17T08:04:24;20.50;99.90
10437;DHT22;5265;50.006;9.202;2023-08-17T08:06:51;20.60;99.90
10437;DHT22;5265;50.006;9.202;2023-08-17T08:09:18;20.60;99.90
10437;DHT22;5265;50.006;9.202;2023-08-17T08:11:47;20.60;99.90
10437;DHT22;5265;50.006;9.202;2023-08-17T08:14:14;20.70;99.90
10437;DHT22;5265;50.006;9.202;2023-08-17T08:16:41;20.70;99.90
10437;DHT22;5265;50.006;9.202;2023-08-17T08:19:08;20.80;99.90
10437;DHT22;5265;50.006;9.202;2023-08-17T08:21:36;21.00;99.90
10437;DHT22;5265;50.006;9.202;2023-08-17T08:24:04;21.00;99.90
10437;DHT22;5265;50.006;9.202;2023-08-17T08:26:31;21.20;99.90
10437;DHT22;5265;50.006;9.202;2023-08-17T08:28:58;21.40;99.90
10437;DHT22;5265;50.006;9.202;2023-08-17T08:31:25;21.50;99.90
10437;DHT22;5265;50.006;9.202;2023-08-17T08:33:52;21.50;99.90
10437;DHT22;5265;50.006;9.202;2023-08-17T08:36:20;21.70;99.90
10437;DHT22;5265;50.006;9.202;2023-08-17T08:38:48;21.80;99.90
10437;DHT22;5265;50.006;9.202;2023-08-17T08:41:15;21.90;99.90
10437;DHT22;5265;50.006;9.202;2023-08-17T08:43:42;22.10;99.90
10437;DHT22;5265;50.006;9.202;2023-08-17T08:46:10;22.20;99.90
10437;DHT22;5265;50.006;9.202;2023-08-17T08:48:37;22.00;99.90
10437;DHT22;5265;50.006;9.202;2023-08-17T08:51:07;22.10;99.90
10437;DHT22;5265;50.006;9.202;2023-08-17T08:53:41;22.10;99.90
10437;DHT22;5265;50.006;9.202;2023-08-17T08:56:12;22.20;99.90
10437;DHT22;5265;50.006;9.202;2023-08-17T08:58:41;22.00;99.90
10437;DHT22;5265;50.006;9.202;2023-08-17T09:01:09;22.10;99.90
10437;DHT22;5265;50.006;9.202;2023-08-17T09:03:37;22.00;99.90
10437;DHT22;5265;50.006;9.202;2023-08-17T09:06:05;22.10;99.90
10437;DHT22;5265;50.006;9.202;2023-08-17T09:08:32;22.10;99.90
10437;DHT22;5265;50.006;9.202;2023-08-17T09:11:00;22.10;99.90
10437;DHT22;5265;50.006;9.202;2023-08-17T09:13:28;22.10;99.90
10437;DHT22;5265;50.006;9.202;2023-08-17T09:15:56;22.20;99.90
10437;DHT22;5265;50.006;9.202;2023-08-17T09:18:25;22.20;99.90
10437;DHT22;5265;50.006;9.202;2023-08-17T09:20:52;22.30;99.90
10437;DHT22;5265;50.006;9.202;2023-08-17T09:23:20;22.40;99.90
10437;DHT22;5265;50.006;9.202;2023-08-17T09:25:48;22.30;99.90
10437;DHT22;5265;50.006;9.202;2023-08-17T09:28:17;22.30;99.90
10437;DHT22;5265;50.006;9.202;2023-08-17T09:30:56;22.40;99.90
10437;DHT22;5265;50.006;9.202;2023-08-17T09:33:24;22.60;99.90
10437;DHT22;5265;50.006;9.202;2023-08-17T09:35:52;22.70;99.90
10437;DHT22;5265;50.006;9.202;2023-08-17T09:38:19;22.70;99.90
10437;DHT22;5265;50.006;9.202;2023-08-17T09:40:46;22.70;99.90
10437;DHT22;5265;50.006;9.202;2023-08-17T09:43:13;22.70;99.90
10437;DHT22;5265;50.006;9.202;2023-08-17T09:45:41;22.60;99.90
10437;DHT22;5265;50.006;9.202;2023-08-17T09:48:11;22.70;99.90
10437;DHT22;5265;50.006;9.202;2023-08-17T09:50:41;22.60;99.90
10437;DHT22;5265;50.006;9.202;2023-08-17T09:53:12;22.60;99.90
10437;DHT22;5265;50.006;9.202;2023-08-17T09:55:39;22.70;99.90
10437;DHT22;5265;50.006;9.202;2023-08-17T09:58:07;22.80;99.90
10437;DHT22;5265;50.006;9.202;2023-08-17T10:00:35;22.80;99.90
10437;DHT22;5265;50.006;9.202;2023-08-17T10:03:03;23.00;99.90
10437;DHT22;5265;50.006;9.202;2023-08-17T10:05:32;23.00;99.90
10437;DHT22;5265;50.006;9.202;2023-08-17T10:08:02;23.00;99.90
10437;DHT22;5265;50.006;9.202;2023-08-17T10:10:32;23.10;99.90
10437;DHT22;5265;50.006;9.202;2023-08-17T10:13:05;23.30;99.90
10437;DHT22;5265;50.006;9.202;2023-08-17T10:15:34;23.30;99.90
10437;DHT22;5265;50.006;9.202;2023-08-17T10:18:07;23.30;99.90
10437;DHT22;5265;50.006;9.202;2023-08-17T10:20:37;23.30;99.90
10437;DHT22;5265;50.006;9.202;2023-08-17T10:23:07;23.30;99.90
10437;DHT22;5265;50.006;9.202;2023-08-17T10:25:37;23.20;99.90
10437;DHT22;5265;50.006;9.202;2023-08-17T10:28:05;23.30;99.90
10437;DHT22;5265;50.006;9.202;2023-08-17T10:30:32;23.30;99.90
10437;DHT22;5265;50.006;9.202;2023-08-17T10:33:00;23.40;99.90
10437;DHT22;5265;50.006;9.202;2023-08-17T10:35:29;23.50;99.90
10437;DHT22;5265;50.006;9.202;2023-08-17T10:37:58;23.70;99.90
10437;DHT22;5265;50.006;9.202;2023-08-17T10:40:25;23.90;99.90
10437;DHT22;5265;50.006;9.202;2023-08-17T10:42:53;23.90;99.90
10437;DHT22;5265;50.006;9.202;2023-08-17T10:45:25;23.90;99.90
10437;DHT22;5265;50.006;9.202;2023-08-17T10:47:59;24.10;99.90
10437;DHT22;5265;50.006;9.202;2023-08-17T10:50:26;24.00;99.90
10437;DHT22;5265;50.006;9.202;2023-08-17T10:52:53;24.20;99.90
10437;DHT22;5265;50.006;9.202;2023-08-17T10:55:36;24.30;99.90
10437;DHT22;5265;50.006;9.202;2023-08-17T10:58:03;24.60;99.90
10437;DHT22;5265;50.006;9.202;2023-08-17T11:00:32;24.50;99.90
10437;DHT22;5265;50.006;9.202;2023-08-17T11:03:03;24.70;99.90
10437;DHT22;5265;50.006;9.202;2023-08-17T11:05:34;24.70;99.90
10437;DHT22;5265;50.006;9.202;2023-08-17T11:08:01;24.80;99.90
10437;DHT22;5265;50.006;9.202;2023-08-17T11:10:28;24.60;99.90
10437;DHT22;5265;50.006;9.202;2023-08-17T11:12:57;24.60;99.90
10437;DHT22;5265;50.006;9.202;2023-08-17T11:15:34;24.50;99.90
10437;DHT22;5265;50.006;9.202;2023-08-17T11:18:04;24.60;99.90
10437;DHT22;5265;50.006;9.202;2023-08-17T11:20:31;24.80;99.90
10437;DHT22;5265;50.006;9.202;2023-08-17T11:22:58;25.00;99.90
10437;DHT22;5265;50.006;9.202;2023-08-17T11:25:25;25.10;99.90
10437;DHT22;5265;50.006;9.202;2023-08-17T11:27:53;25.30;99.90
10437;DHT22;5265;50.006;9.202;2023-08-17T11:30:22;25.40;99.90
10437;DHT22;5265;50.006;9.202;2023-08-17T11:32:49;25.30;99.90
10437;DHT22;5265;50.006;9.202;2023-08-17T11:35:17;25.60;99.90
10437;DHT22;5265;50.006;9.202;2023-08-17T11:37:44;25.70;99.90
10437;DHT22;5265;50.006;9.202;2023-08-17T11:40:12;25.80;99.90
10437;DHT22;5265;50.006;9.202;2023-08-17T11:42:39;25.60;99.90
10437;DHT22;5265;50.006;9.202;2023-08-17T11:45:06;25.60;99.90
10437;DHT22;5265;50.006;9.202;2023-08-17T11:47:37;25.90;99.90
10437;DHT22;5265;50.006;9.202;2023-08-17T11:50:05;26.20;99.90
10437;DHT22;5265;50.006;9.202;2023-08-17T11:52:32;26.40;99.90
10437;DHT22;5265;50.006;9.202;2023-08-17T11:54:59;26.30;99.90
10437;DHT22;5265;50.006;9.202;2023-08-17T11:57:27;26.20;99.90
10437;DHT22;5265;50.006;9.202;2023-08-17T11:59:54;26.40;99.90
10437;DHT22;5265;50.006;9.202;2023-08-17T12:02:22;26.50;99.90
10437;DHT22;5265;50.006;9.202;2023-08-17T12:04:51;26.50;99.90
10437;DHT22;5265;50.006;9.202;2023-08-17T12:07:18;26.80;99.90
10437;DHT22;5265;50.006;9.202;2023-08-17T12:09:47;26.90;99.90
10437;DHT22;5265;50.006;9.202;2023-08-17T12:12:17;26.80;99.90
10437;DHT22;5265;50.006;9.202;2023-08-17T12:14:44;26.60;99.90
10437;DHT22;5265;50.006;9.202;2023-08-17T12:17:13;26.60;99.90
10437;DHT22;5265;50.006;9.202;2023-08-17T12:19:42;26.70;99.90
10437;DHT22;5265;50.006;9.202;2023-08-17T12:22:11;27.10;99.90
10437;DHT22;5265;50.006;9.202;2023-08-17T12:24:39;27.40;99.90
10437;DHT22;5265;50.006;9.202;2023-08-17T12:27:06;27.50;99.90
10437;DHT22;5265;50.006;9.202;2023-08-17T12:29:34;27.60;99.90
10437;DHT22;5265;50.006;9.202;2023-08-17T12:32:13;28.00;99.90
10437;DHT22;5265;50.006;9.202;2023-08-17T12:34:41;28.10;99.90
10437;DHT22;5265;50.006;9.202;2023-08-17T12:37:08;28.00;99.90
10437;DHT22;5265;50.006;9.202;2023-08-17T12:39:37;27.90;99.90
10437;DHT22;5265;50.006;9.202;2023-08-17T12:42:04;27.90;99.90
10437;DHT22;5265;50.006;9.202;2023-08-17T12:44:31;27.90;99.90
10437;DHT22;5265;50.006;9.202;2023-08-17T12:46:58;28.10;99.90
10437;DHT22;5265;50.006;9.202;2023-08-17T12:49:25;28.20;99.90
10437;DHT22;5265;50.006;9.202;2023-08-17T12:51:53;28.30;99.90
10437;DHT22;5265;50.006;9.202;2023-08-17T12:54:20;28.40;99.90
10437;DHT22;5265;50.006;9.202;2023-08-17T12:56:48;28.30;99.90
10437;DHT22;5265;50.006;9.202;2023-08-17T12:59:15;28.30;99.90
10437;DHT22;5265;50.006;9.202;2023-08-17T13:01:43;28.10;99.90
10437;DHT22;5265;50.006;9.202;2023-08-17T13:04:10;28.00;99.90
10437;DHT22;5265;50.006;9.202;2023-08-17T13:06:37;28.00;99.90
10437;DHT22;5265;50.006;9.202;2023-08-17T13:09:04;28.00;99.90
10437;DHT22;5265;50.006;9.202;2023-08-17T13:11:32;27.90;99.90
10437;DHT22;5265;50.006;9.202;2023-08-17T13:14:00;27.90;99.90
10437;DHT22;5265;50.006;9.202;2023-08-17T13:16:27;27.90;99.90
10437;DHT22;5265;50.006;9.202;2023-08-17T13:18:54;27.80;99.90
10437;DHT22;5265;50.006;9.202;2023-08-17T13:21:21;27.60;99.90
10437;DHT22;5265;50.006;9.202;2023-08-17T13:23:48;27.50;99.90
10437;DHT22;5265;50.006;9.202;2023-08-17T13:26:15;27.40;99.90
10437;DHT22;5265;50.006;9.202;2023-08-17T13:28:43;27.30;99.90
10437;DHT22;5265;50.006;9.202;2023-08-17T13:31:11;27.30;99.90
10437;DHT22;5265;50.006;9.202;2023-08-17T13:33:38;27.20;99.90
10437;DHT22;5265;50.006;9.202;2023-08-17T13:36:06;27.30;99.90
10437;DHT22;5265;50.006;9.202;2023-08-17T13:38:33;27.30;99.90
10437;DHT22;5265;50.006;9.202;2023-08-17T13:41:00;27.40;99.90
10437;DHT22;5265;50.006;9.202;2023-08-17T13:43:27;27.30;99.90
10437;DHT22;5265;50.006;9.202;2023-08-17T13:45:54;27.40;99.90
10437;DHT22;5265;50.006;9.202;2023-08-17T13:48:23;27.20;99.90
10437;DHT22;5265;50.006;9.202;2023-08-17T13:50:50;27.40;99.90
10437;DHT22;5265;50.006;9.202;2023-08-17T13:53:17;27.40;99.90
10437;DHT22;5265;50.006;9.202;2023-08-17T13:55:44;27.50;99.90
10437;DHT22;5265;50.006;9.202;2023-08-17T13:58:11;27.50;99.90
10437;DHT22;5265;50.006;9.202;2023-08-17T14:00:38;27.50;99.90
10437;DHT22;5265;50.006;9.202;2023-08-17T14:03:05;27.40;99.90
10437;DHT22;5265;50.006;9.202;2023-08-17T14:05:34;27.60;99.90
10437;DHT22;5265;50.006;9.202;2023-08-17T14:08:01;27.70;99.90
10437;DHT22;5265;50.006;9.202;2023-08-17T14:10:30;27.60;99.90
10437;DHT22;5265;50.006;9.202;2023-08-17T14:12:57;27.70;99.90
10437;DHT22;5265;50.006;9.202;2023-08-17T14:15:24;27.70;99.90
10437;DHT22;5265;50.006;9.202;2023-08-17T14:17:51;27.70;99.90
10437;DHT22;5265;50.006;9.202;2023-08-17T14:20:18;27.70;99.90
10437;DHT22;5265;50.006;9.202;2023-08-17T14:22:47;27.70;99.90
10437;DHT22;5265;50.006;9.202;2023-08-17T14:25:14;27.80;99.90
10437;DHT22;5265;50.006;9.202;2023-08-17T14:27:42;27.80;99.90
10437;DHT22;5265;50.006;9.202;2023-08-17T14:30:09;27.80;99.90
10437;DHT22;5265;50.006;9.202;2023-08-17T14:32:37;27.90;99.90
10437;DHT22;5265;50.006;9.202;2023-08-17T14:35:04;27.90;99.90
10437;DHT22;5265;50.006;9.202;2023-08-17T14:37:31;28.10;99.90
10437;DHT22;5265;50.006;9.202;2023-08-17T14:40:00;28.20;99.90
10437;DHT22;5265;50.006;9.202;2023-08-17T14:42:27;28.20;99.90
10437;DHT22;5265;50.006;9.202;2023-08-17T14:44:55;28.00;99.90
10437;DHT22;5265;50.006;9.202;2023-08-17T14:47:22;28.10;99.90
10437;DHT22;5265;50.006;9.202;2023-08-17T14:49:49;28.00;99.90
10437;DHT22;5265;50.006;9.202;2023-08-17T14:52:16;28.10;99.90
10437;DHT22;5265;50.006;9.202;2023-08-17T14:54:43;28.10;99.90
10437;DHT22;5265;50.006;9.202;2023-08-17T14:57:12;28.20;99.90
10437;DHT22;5265;50.006;9.202;2023-08-17T14:59:39;28.40;99.90
10437;DHT22;5265;50.006;9.202;2023-08-17T15:02:06;28.30;99.90
10437;DHT22;5265;50.006;9.202;2023-08-17T15:04:33;28.30;99.90
10437;DHT22;5265;50.006;9.202;2023-08-17T15:07:03;28.40;99.90
10437;DHT22;5265;50.006;9.202;2023-08-17T15:09:35;28.40;99.90
10437;DHT22;5265;50.006;9.202;2023-08-17T15:12:02;28.10;99.90
10437;DHT22;5265;50.006;9.202;2023-08-17T15:14:31;28.00;99.90
10437;DHT22;5265;50.006;9.202;2023-08-17T15:16:58;27.90;99.90
10437;DHT22;5265;50.006;9.202;2023-08-17T15:19:25;28.10;99.90
10437;DHT22;5265;50.006;9.202;2023-08-17T15:21:52;28.20;99.90
10437;DHT22;5265;50.006;9.202;2023-08-17T15:24:20;28.20;99.90
10437;DHT22;5265;50.006;9.202;2023-08-17T15:26:47;28.30;99.90
10437;DHT22;5265;50.006;9.202;2023-08-17T15:29:14;28.40;99.90
10437;DHT22;5265;50.006;9.202;2023-08-17T15:31:42;28.40;99.90
10437;DHT22;5265;50.006;9.202;2023-08-17T15:34:09;28.50;99.90
10437;DHT22;5265;50.006;9.202;2023-08-17T15:36:37;28.80;99.90
10437;DHT22;5265;50.006;9.202;2023-08-17T15:39:04;28.90;99.90
10437;DHT22;5265;50.006;9.202;2023-08-17T15:41:31;28.90;99.90
10437;DHT22;5265;50.006;9.202;2023-08-17T15:43:58;28.70;99.90
10437;DHT22;5265;50.006;9.202;2023-08-17T15:46:25;28.80;99.90
10437;DHT22;5265;50.006;9.202;2023-08-17T15:48:54;28.70;99.90
10437;DHT22;5265;50.006;9.202;2023-08-17T15:51:22;28.80;99.90
10437;DHT22;5265;50.006;9.202;2023-08-17T15:53:49;29.00;99.90
10437;DHT22;5265;50.006;9.202;2023-08-17T15:56:17;29.10;99.90
10437;DHT22;5265;50.006;9.202;2023-08-17T15:58:44;29.00;99.90
10437;DHT22;5265;50.006;9.202;2023-08-17T16:01:11;28.80;99.90
10437;DHT22;5265;50.006;9.202;2023-08-17T16:03:38;29.00;99.90
10437;DHT22;5265;50.006;9.202;2023-08-17T16:06:06;29.10;99.90
10437;DHT22;5265;50.006;9.202;2023-08-17T16:08:34;29.20;99.90
10437;DHT22;5265;50.006;9.202;2023-08-17T16:11:01;29.30;99.90
10437;DHT22;5265;50.006;9.202;2023-08-17T16:13:28;29.10;99.90
10437;DHT22;5265;50.006;9.202;2023-08-17T16:15:55;28.90;99.90